sensor_id;sensor_type;location;lat;lon;timestamp;P1;durP1;ratioP1;P2;durP2;ratioP2
40533;SDS011;26233;51.894;10.192;2024-01-11T00:00:46;15.07;;;9.73;;
40533;SDS011;26233;51.894;10.192;2024-01-11T00:03:14;13.40;;;9.83;;
40533;SDS011;26233;51.894;10.192;2024-01-11T00:05:41;14.37;;;9.93;;
40533;SDS011;26233;51.894;10.192;2024-01-11T00:08:10;13.57;;;9.50;;
40533;SDS011;26233;51.894;10.192;2024-01-11T00:10:37;12.17;;;9.27;;
40533;SDS011;26233;51.894;10.192;2024-01-11T00:13:04;14.60;;;10.10;;
40533;SDS011;26233;51.894;10.192;2024-01-11T00:15:31;14.13;;;9.97;;
40533;SDS011;26233;51.894;10.192;2024-01-11T00:18:00;14.00;;;9.77;;
40533;SDS011;26233;51.894;10.192;2024-01-11T00:20:27;14.93;;;10.10;;
40533;SDS011;26233;51.894;10.192;2024-01-11T00:22:55;14.70;;;10.57;;
40533;SDS011;26233;51.894;10.192;2024-01-11T00:25:22;15.67;;;11.23;;
40533;SDS011;26233;51.894;10.192;2024-01-11T00:27:49;16.00;;;11.30;;
40533;SDS011;26233;51.894;10.192;2024-01-11T00:30:16;15.90;;;12.07;;
40533;SDS011;26233;51.894;10.192;2024-01-11T00:32:43;16.83;;;12.40;;
40533;SDS011;26233;51.894;10.192;2024-01-11T00:35:11;18.93;;;13.37;;
40533;SDS011;26233;51.894;10.192;2024-01-11T00:37:38;22.17;;;14.37;;
40533;SDS011;26233;51.894;10.192;2024-01-11T00:40:06;19.97;;;13.63;;
40533;SDS011;26233;51.894;10.192;2024-01-11T00:42:34;18.50;;;14.23;;
40533;SDS011;26233;51.894;10.192;2024-01-11T00:45:01;20.30;;;13.80;;
40533;SDS011;26233;51.894;10.192;2024-01-11T00:47:29;19.70;;;13.70;;
40533;SDS011;26233;51.894;10.192;2024-01-11T00:49:56;19.40;;;13.83;;
40533;SDS011;26233;51.894;10.192;2024-01-11T00:52:25;16.50;;;12.73;;
40533;SDS011;26233;51.894;10.192;2024-01-11T00:54:52;18.20;;;13.27;;
40533;SDS011;26233;51.894;10.192;2024-01-11T00:57:19;20.73;;;13.57;;
40533;SDS011;26233;51.894;10.192;2024-01-11T00:59:46;19.80;;;14.67;;
40533;SDS011;26233;51.894;10.192;2024-01-11T01:02:13;19.63;;;13.93;;
40533;SDS011;26233;51.894;10.192;2024-01-11T01:04:40;21.63;;;13.67;;
40533;SDS011;26233;51.894;10.192;2024-01-11T01:07:07;20.77;;;13.23;;
40533;SDS011;26233;51.894;10.192;2024-01-11T01:09:36;19.10;;;12.73;;
40533;SDS011;26233;51.894;10.192;2024-01-11T01:12:03;16.50;;;11.67;;
40533;SDS011;26233;51.894;10.192;2024-01-11T01:14:31;15.43;;;11.27;;
40533;SDS011;26233;51.894;10.192;2024-01-11T01:16:58;15.63;;;11.07;;
40533;SDS011;26233;51.894;10.192;2024-01-11T01:19:25;14.00;;;10.63;;
40533;SDS011;26233;51.894;10.192;2024-01-11T01:21:52;14.87;;;10.20;;
40533;SDS011;26233;51.894;10.192;2024-01-11T01:24:19;14.90;;;10.10;;
40533;SDS011;26233;51.894;10.192;2024-01-11T01:26:48;14.93;;;10.40;;
40533;SDS011;26233;51.894;10.192;2024-01-11T01:29:15;13.40;;;9.37;;
40533;SDS011;26233;51.894;10.192;2024-01-11T01:31:42;13.97;;;9.07;;
40533;SDS011;26233;51.894;10.192;2024-01-11T01:34:09;13.47;;;8.93;;
40533;SDS011;26233;51.894;10.192;2024-01-11T01:36:36;12.50;;;8.20;;
40533;SDS011;26233;51.894;10.192;2024-01-11T01:39:03;13.07;;;8.67;;
40533;SDS011;26233;51.894;10.192;2024-01-11T01:41:30;15.60;;;10.53;;
40533;SDS011;26233;51.894;10.192;2024-01-11T01:43:58;14.53;;;10.47;;
40533;SDS011;26233;51.894;10.192;2024-01-11T01:46:25;13.63;;;9.70;;
40533;SDS011;26233;51.894;10.192;2024-01-11T01:48:54;15.47;;;10.57;;
40533;SDS011;26233;51.894;10.192;2024-01-11T01:51:24;17.07;;;10.83;;
40533;SDS011;26233;51.894;10.192;2024-01-11T01:53:55;16.20;;;10.83;;
40533;SDS011;26233;51.894;10.192;2024-01-11T01:56:23;16.93;;;11.17;;
40533;SDS011;26233;51.894;10.192;2024-01-11T01:58:51;15.07;;;11.10;;
40533;SDS011;26233;51.894;10.192;2024-01-11T02:01:21;14.13;;;10.30;;
40533;SDS011;26233;51.894;10.192;2024-01-11T02:03:49;14.90;;;10.23;;
40533;SDS011;26233;51.894;10.192;2024-01-11T02:06:18;14.47;;;9.67;;
40533;SDS011;26233;51.894;10.192;2024-01-11T02:08:49;11.87;;;8.87;;
40533;SDS011;26233;51.894;10.192;2024-01-11T02:11:19;12.27;;;9.13;;
40533;SDS011;26233;51.894;10.192;2024-01-11T02:13:48;13.03;;;9.07;;
40533;SDS011;26233;51.894;10.192;2024-01-11T02:16:15;14.67;;;9.60;;
40533;SDS011;26233;51.894;10.192;2024-01-11T02:18:44;12.77;;;9.27;;
40533;SDS011;26233;51.894;10.192;2024-01-11T02:21:11;10.10;;;7.47;;
40533;SDS011;26233;51.894;10.192;2024-01-11T02:23:42;10.53;;;7.93;;
40533;SDS011;26233;51.894;10.192;2024-01-11T02:26:13;10.43;;;7.60;;
40533;SDS011;26233;51.894;10.192;2024-01-11T02:28:43;12.97;;;7.83;;
40533;SDS011;26233;51.894;10.192;2024-01-11T02:31:10;12.00;;;7.83;;
40533;SDS011;26233;51.894;10.192;2024-01-11T02:33:39;11.80;;;7.73;;
40533;SDS011;26233;51.894;10.192;2024-01-11T02:36:06;10.90;;;7.87;;
40533;SDS011;26233;51.894;10.192;2024-01-11T02:38:33;12.07;;;9.03;;
40533;SDS011;26233;51.894;10.192;2024-01-11T02:41:02;15.27;;;10.03;;
40533;SDS011;26233;51.894;10.192;2024-01-11T02:43:31;16.30;;;11.20;;
40533;SDS011;26233;51.894;10.192;2024-01-11T02:45:58;16.93;;;11.50;;
40533;SDS011;26233;51.894;10.192;2024-01-11T02:48:27;16.53;;;12.47;;
40533;SDS011;26233;51.894;10.192;2024-01-11T02:50:55;16.83;;;12.27;;
40533;SDS011;26233;51.894;10.192;2024-01-11T02:53:23;17.83;;;12.87;;
40533;SDS011;26233;51.894;10.192;2024-01-11T02:55:50;18.43;;;12.23;;
40533;SDS011;26233;51.894;10.192;2024-01-11T02:58:17;18.60;;;12.90;;
40533;SDS011;26233;51.894;10.192;2024-01-11T03:00:46;18.70;;;12.70;;
40533;SDS011;26233;51.894;10.192;2024-01-11T03:03:13;23.03;;;14.17;;
40533;SDS011;26233;51.894;10.192;2024-01-11T03:05:40;17.17;;;12.27;;
40533;SDS011;26233;51.894;10.192;2024-01-11T03:08:07;19.40;;;13.43;;
40533;SDS011;26233;51.894;10.192;2024-01-11T03:10:36;18.83;;;13.83;;
40533;SDS011;26233;51.894;10.192;2024-01-11T03:13:05;20.97;;;13.93;;
40533;SDS011;26233;51.894;10.192;2024-01-11T03:15:32;18.37;;;13.27;;
40533;SDS011;26233;51.894;10.192;2024-01-11T03:18:00;20.00;;;12.73;;
40533;SDS011;26233;51.894;10.192;2024-01-11T03:20:27;14.37;;;10.50;;
40533;SDS011;26233;51.894;10.192;2024-01-11T03:22:54;16.30;;;10.87;;
40533;SDS011;26233;51.894;10.192;2024-01-11T03:25:21;13.70;;;10.50;;
40533;SDS011;26233;51.894;10.192;2024-01-11T03:27:48;16.03;;;10.80;;
40533;SDS011;26233;51.894;10.192;2024-01-11T03:30:15;15.37;;;10.47;;
40533;SDS011;26233;51.894;10.192;2024-01-11T03:32:43;15.77;;;10.90;;
40533;SDS011;26233;51.894;10.192;2024-01-11T03:35:11;16.50;;;12.07;;
40533;SDS011;26233;51.894;10.192;2024-01-11T03:37:38;17.70;;;12.07;;
40533;SDS011;26233;51.894;10.192;2024-01-11T03:40:06;17.20;;;12.07;;
40533;SDS011;26233;51.894;10.192;2024-01-11T03:42:33;14.77;;;10.90;;
40533;SDS011;26233;51.894;10.192;2024-01-11T03:45:00;14.80;;;10.80;;
40533;SDS011;26233;51.894;10.192;2024-01-11T03:47:28;14.47;;;10.93;;
40533;SDS011;26233;51.894;10.192;2024-01-11T03:49:55;14.50;;;10.60;;
40533;SDS011;26233;51.894;10.192;2024-01-11T03:52:23;15.10;;;11.10;;
40533;SDS011;26233;51.894;10.192;2024-01-11T03:54:50;15.13;;;11.43;;
40533;SDS011;26233;51.894;10.192;2024-01-11T03:57:18;16.33;;;11.93;;
40533;SDS011;26233;51.894;10.192;2024-01-11T03:59:45;16.93;;;12.70;;
40533;SDS011;26233;51.894;10.192;2024-01-11T04:02:12;18.87;;;12.73;;
40533;SDS011;26233;51.894;10.192;2024-01-11T04:04:39;17.53;;;12.30;;
40533;SDS011;26233;51.894;10.192;2024-01-11T04:07:07;17.83;;;12.50;;
40533;SDS011;26233;51.894;10.192;2024-01-11T04:09:38;19.17;;;13.77;;
40533;SDS011;26233;51.894;10.192;2024-01-11T04:12:05;17.33;;;12.83;;
40533;SDS011;26233;51.894;10.192;2024-01-11T04:14:33;19.97;;;13.53;;
40533;SDS011;26233;51.894;10.192;2024-01-11T04:17:04;18.97;;;13.67;;
40533;SDS011;26233;51.894;10.192;2024-01-11T04:19:31;20.63;;;14.77;;
40533;SDS011;26233;51.894;10.192;2024-01-11T04:21:58;23.37;;;16.30;;
40533;SDS011;26233;51.894;10.192;2024-01-11T04:24:25;22.77;;;17.00;;
40533;SDS011;26233;51.894;10.192;2024-01-11T04:26:53;23.50;;;16.43;;
40533;SDS011;26233;51.894;10.192;2024-01-11T04:29:20;25.73;;;17.23;;
40533;SDS011;26233;51.894;10.192;2024-01-11T04:31:47;25.63;;;16.97;;
40533;SDS011;26233;51.894;10.192;2024-01-11T04:34:14;24.27;;;15.90;;
40533;SDS011;26233;51.894;10.192;2024-01-11T04:36:41;24.17;;;16.63;;
40533;SDS011;26233;51.894;10.192;2024-01-11T04:39:08;24.73;;;17.27;;
40533;SDS011;26233;51.894;10.192;2024-01-11T04:41:36;20.63;;;15.23;;
40533;SDS011;26233;51.894;10.192;2024-01-11T04:44:04;22.43;;;15.07;;
40533;SDS011;26233;51.894;10.192;2024-01-11T04:46:31;19.83;;;14.03;;
40533;SDS011;26233;51.894;10.192;2024-01-11T04:48:58;15.73;;;10.60;;
40533;SDS011;26233;51.894;10.192;2024-01-11T04:51:25;14.57;;;9.93;;
40533;SDS011;26233;51.894;10.192;2024-01-11T04:53:53;12.53;;;8.73;;
40533;SDS011;26233;51.894;10.192;2024-01-11T04:56:20;13.00;;;8.40;;
40533;SDS011;26233;51.894;10.192;2024-01-11T04:58:47;13.87;;;10.00;;
40533;SDS011;26233;51.894;10.192;2024-01-11T05:01:16;14.27;;;10.60;;
40533;SDS011;26233;51.894;10.192;2024-01-11T05:03:44;15.87;;;11.13;;
40533;SDS011;26233;51.894;10.192;2024-01-11T05:06:16;32.77;;;22.97;;
40533;SDS011;26233;51.894;10.192;2024-01-11T05:08:43;28.17;;;18.37;;
40533;SDS011;26233;51.894;10.192;2024-01-11T05:11:14;20.37;;;12.33;;
40533;SDS011;26233;51.894;10.192;2024-01-11T05:13:43;16.80;;;10.60;;
40533;SDS011;26233;51.894;10.192;2024-01-11T05:16:18;17.47;;;11.67;;
40533;SDS011;26233;51.894;10.192;2024-01-11T05:18:46;18.13;;;11.93;;
40533;SDS011;26233;51.894;10.192;2024-01-11T05:21:13;18.27;;;12.20;;
40533;SDS011;26233;51.894;10.192;2024-01-11T05:23:40;20.37;;;13.63;;
40533;SDS011;26233;51.894;10.192;2024-01-11T05:26:08;23.10;;;14.63;;
40533;SDS011;26233;51.894;10.192;2024-01-11T05:28:35;34.13;;;21.07;;
40533;SDS011;26233;51.894;10.192;2024-01-11T05:31:04;27.90;;;17.43;;
40533;SDS011;26233;51.894;10.192;2024-01-11T05:33:33;28.83;;;16.93;;
40533;SDS011;26233;51.894;10.192;2024-01-11T05:36:00;23.20;;;13.13;;
40533;SDS011;26233;51.894;10.192;2024-01-11T05:38:28;19.20;;;12.73;;
40533;SDS011;26233;51.894;10.192;2024-01-11T05:40:55;19.67;;;12.80;;
40533;SDS011;26233;51.894;10.192;2024-01-11T05:43:22;16.97;;;11.90;;
40533;SDS011;26233;51.894;10.192;2024-01-11T05:45:49;15.97;;;11.50;;
40533;SDS011;26233;51.894;10.192;2024-01-11T05:48:16;15.77;;;11.27;;
40533;SDS011;26233;51.894;10.192;2024-01-11T05:50:45;16.03;;;11.37;;
40533;SDS011;26233;51.894;10.192;2024-01-11T05:53:13;15.40;;;10.77;;
40533;SDS011;26233;51.894;10.192;2024-01-11T05:55:40;15.20;;;10.93;;
40533;SDS011;26233;51.894;10.192;2024-01-11T05:58:07;17.33;;;11.53;;
40533;SDS011;26233;51.894;10.192;2024-01-11T06:00:35;15.77;;;10.87;;
40533;SDS011;26233;51.894;10.192;2024-01-11T06:03:02;15.83;;;10.87;;
40533;SDS011;26233;51.894;10.192;2024-01-11T06:05:30;14.70;;;11.00;;
40533;SDS011;26233;51.894;10.192;2024-01-11T06:07:58;14.83;;;10.37;;
40533;SDS011;26233;51.894;10.192;2024-01-11T06:10:25;14.63;;;10.97;;
40533;SDS011;26233;51.894;10.192;2024-01-11T06:12:52;15.13;;;12.33;;
40533;SDS011;26233;51.894;10.192;2024-01-11T06:15:18;18.17;;;14.53;;
40533;SDS011;26233;51.894;10.192;2024-01-11T06:17:45;18.00;;;13.47;;
40533;SDS011;26233;51.894;10.192;2024-01-11T06:20:12;16.60;;;12.57;;
40533;SDS011;26233;51.894;10.192;2024-01-11T06:22:40;16.20;;;11.60;;
40533;SDS011;26233;51.894;10.192;2024-01-11T06:25:09;14.23;;;11.13;;
40533;SDS011;26233;51.894;10.192;2024-01-11T06:27:36;15.73;;;11.43;;
40533;SDS011;26233;51.894;10.192;2024-01-11T06:30:03;14.47;;;10.90;;
40533;SDS011;26233;51.894;10.192;2024-01-11T06:32:32;15.37;;;11.10;;
40533;SDS011;26233;51.894;10.192;2024-01-11T06:34:59;16.63;;;11.37;;
40533;SDS011;26233;51.894;10.192;2024-01-11T06:37:27;16.33;;;11.77;;
40533;SDS011;26233;51.894;10.192;2024-01-11T06:39:54;13.90;;;11.10;;
40533;SDS011;26233;51.894;10.192;2024-01-11T06:42:22;15.33;;;11.50;;
40533;SDS011;26233;51.894;10.192;2024-01-11T06:44:49;14.90;;;10.97;;
40533;SDS011;26233;51.894;10.192;2024-01-11T06:47:16;14.97;;;11.23;;
40533;SDS011;26233;51.894;10.192;2024-01-11T06:49:43;11.73;;;9.27;;
40533;SDS011;26233;51.894;10.192;2024-01-11T06:52:11;11.23;;;8.60;;
40533;SDS011;26233;51.894;10.192;2024-01-11T06:54:39;11.50;;;8.13;;
40533;SDS011;26233;51.894;10.192;2024-01-11T06:57:06;12.07;;;8.07;;
40533;SDS011;26233;51.894;10.192;2024-01-11T06:59:35;9.07;;;7.07;;
40533;SDS011;26233;51.894;10.192;2024-01-11T07:02:02;10.47;;;8.43;;
40533;SDS011;26233;51.894;10.192;2024-01-11T07:04:30;12.47;;;8.63;;
40533;SDS011;26233;51.894;10.192;2024-01-11T07:06:56;11.80;;;8.27;;
40533;SDS011;26233;51.894;10.192;2024-01-11T07:09:23;10.87;;;7.77;;
40533;SDS011;26233;51.894;10.192;2024-01-11T07:11:50;11.80;;;8.13;;
40533;SDS011;26233;51.894;10.192;2024-01-11T07:14:17;11.67;;;7.63;;
40533;SDS011;26233;51.894;10.192;2024-01-11T07:16:46;10.63;;;8.03;;
40533;SDS011;26233;51.894;10.192;2024-01-11T07:19:13;10.07;;;7.30;;
40533;SDS011;26233;51.894;10.192;2024-01-11T07:21:40;11.63;;;8.63;;
40533;SDS011;26233;51.894;10.192;2024-01-11T07:24:07;11.33;;;8.53;;
40533;SDS011;26233;51.894;10.192;2024-01-11T07:26:34;13.47;;;9.50;;
40533;SDS011;26233;51.894;10.192;2024-01-11T07:29:01;12.53;;;9.10;;
40533;SDS011;26233;51.894;10.192;2024-01-11T07:31:28;12.03;;;9.00;;
40533;SDS011;26233;51.894;10.192;2024-01-11T07:33:57;12.77;;;9.67;;
40533;SDS011;26233;51.894;10.192;2024-01-11T07:36:24;14.27;;;9.40;;
40533;SDS011;26233;51.894;10.192;2024-01-11T07:38:51;13.00;;;8.53;;
40533;SDS011;26233;51.894;10.192;2024-01-11T07:41:20;13.37;;;9.80;;
40533;SDS011;26233;51.894;10.192;2024-01-11T07:43:48;12.50;;;8.90;;
40533;SDS011;26233;51.894;10.192;2024-01-11T07:46:15;13.83;;;9.60;;
40533;SDS011;26233;51.894;10.192;2024-01-11T07:48:42;13.10;;;8.63;;
40533;SDS011;26233;51.894;10.192;2024-01-11T07:51:10;11.07;;;7.50;;
40533;SDS011;26233;51.894;10.192;2024-01-11T07:53:37;11.07;;;7.93;;
40533;SDS011;26233;51.894;10.192;2024-01-11T07:56:06;9.03;;;7.03;;
40533;SDS011;26233;51.894;10.192;2024-01-11T07:58:33;8.27;;;6.13;;
40533;SDS011;26233;51.894;10.192;2024-01-11T08:01:01;7.87;;;5.83;;
40533;SDS011;26233;51.894;10.192;2024-01-11T08:03:28;8.57;;;6.53;;
40533;SDS011;26233;51.894;10.192;2024-01-11T08:05:56;11.60;;;8.03;;
40533;SDS011;26233;51.894;10.192;2024-01-11T08:08:24;11.53;;;8.47;;
40533;SDS011;26233;51.894;10.192;2024-01-11T08:10:51;13.00;;;9.67;;
40533;SDS011;26233;51.894;10.192;2024-01-11T08:13:18;11.43;;;8.13;;
40533;SDS011;26233;51.894;10.192;2024-01-11T08:15:46;12.27;;;9.73;;
40533;SDS011;26233;51.894;10.192;2024-01-11T08:18:13;14.27;;;10.80;;
40533;SDS011;26233;51.894;10.192;2024-01-11T08:20:40;13.63;;;10.10;;
40533;SDS011;26233;51.894;10.192;2024-01-11T08:23:07;14.07;;;10.00;;
40533;SDS011;26233;51.894;10.192;2024-01-11T08:25:36;12.60;;;9.60;;
40533;SDS011;26233;51.894;10.192;2024-01-11T08:28:04;15.13;;;9.90;;
40533;SDS011;26233;51.894;10.192;2024-01-11T08:30:32;15.47;;;11.37;;
40533;SDS011;26233;51.894;10.192;2024-01-11T08:32:59;15.73;;;12.00;;
40533;SDS011;26233;51.894;10.192;2024-01-11T08:35:26;16.70;;;12.13;;
40533;SDS011;26233;51.894;10.192;2024-01-11T08:37:53;17.77;;;12.57;;
40533;SDS011;26233;51.894;10.192;2024-01-11T08:40:20;16.43;;;12.53;;
40533;SDS011;26233;51.894;10.192;2024-01-11T08:42:48;16.27;;;11.97;;
40533;SDS011;26233;51.894;10.192;2024-01-11T08:45:16;16.03;;;12.00;;
40533;SDS011;26233;51.894;10.192;2024-01-11T08:47:43;17.10;;;12.40;;
40533;SDS011;26233;51.894;10.192;2024-01-11T08:50:12;15.30;;;11.93;;
40533;SDS011;26233;51.894;10.192;2024-01-11T08:52:39;15.53;;;11.80;;
40533;SDS011;26233;51.894;10.192;2024-01-11T08:55:07;15.23;;;11.80;;
40533;SDS011;26233;51.894;10.192;2024-01-11T08:57:34;15.77;;;12.13;;
40533;SDS011;26233;51.894;10.192;2024-01-11T09:00:04;19.57;;;14.17;;
40533;SDS011;26233;51.894;10.192;2024-01-11T09:02:32;18.37;;;13.80;;
40533;SDS011;26233;51.894;10.192;2024-01-11T09:05:00;21.37;;;16.50;;
40533;SDS011;26233;51.894;10.192;2024-01-11T09:07:30;21.80;;;17.57;;
40533;SDS011;26233;51.894;10.192;2024-01-11T09:09:57;26.23;;;19.50;;
40533;SDS011;26233;51.894;10.192;2024-01-11T09:12:24;25.13;;;19.27;;
40533;SDS011;26233;51.894;10.192;2024-01-11T09:14:51;24.50;;;18.70;;
40533;SDS011;26233;51.894;10.192;2024-01-11T09:17:19;24.07;;;19.47;;
40533;SDS011;26233;51.894;10.192;2024-01-11T09:19:47;25.10;;;18.87;;
40533;SDS011;26233;51.894;10.192;2024-01-11T09:22:14;23.50;;;20.23;;
40533;SDS011;26233;51.894;10.192;2024-01-11T09:24:41;26.23;;;20.23;;
40533;SDS011;26233;51.894;10.192;2024-01-11T09:27:08;24.70;;;19.77;;
40533;SDS011;26233;51.894;10.192;2024-01-11T09:29:35;23.97;;;19.50;;
40533;SDS011;26233;51.894;10.192;2024-01-11T09:32:02;22.83;;;18.47;;
40533;SDS011;26233;51.894;10.192;2024-01-11T09:34:31;24.97;;;19.47;;
40533;SDS011;26233;51.894;10.192;2024-01-11T09:36:58;22.53;;;19.33;;
40533;SDS011;26233;51.894;10.192;2024-01-11T09:39:26;23.27;;;18.33;;
40533;SDS011;26233;51.894;10.192;2024-01-11T09:41:57;22.53;;;18.47;;
40533;SDS011;26233;51.894;10.192;2024-01-11T09:44:27;22.90;;;18.13;;
40533;SDS011;26233;51.894;10.192;2024-01-11T09:46:56;23.00;;;17.73;;
40533;SDS011;26233;51.894;10.192;2024-01-11T09:49:27;22.27;;;18.10;;
40533;SDS011;26233;51.894;10.192;2024-01-11T09:51:58;23.27;;;18.00;;
40533;SDS011;26233;51.894;10.192;2024-01-11T09:54:26;22.10;;;17.90;;
40533;SDS011;26233;51.894;10.192;2024-01-11T09:56:54;23.23;;;19.03;;
40533;SDS011;26233;51.894;10.192;2024-01-11T09:59:25;22.57;;;18.30;;
40533;SDS011;26233;51.894;10.192;2024-01-11T10:01:52;25.33;;;19.43;;
40533;SDS011;26233;51.894;10.192;2024-01-11T10:04:19;23.60;;;19.27;;
40533;SDS011;26233;51.894;10.192;2024-01-11T10:06:47;24.83;;;20.27;;
40533;SDS011;26233;51.894;10.192;2024-01-11T10:09:17;27.23;;;20.77;;
40533;SDS011;26233;51.894;10.192;2024-01-11T10:11:44;26.00;;;20.27;;
40533;SDS011;26233;51.894;10.192;2024-01-11T10:14:11;23.20;;;18.27;;
40533;SDS011;26233;51.894;10.192;2024-01-11T10:16:39;24.07;;;18.67;;
40533;SDS011;26233;51.894;10.192;2024-01-11T10:19:08;26.10;;;19.40;;
40533;SDS011;26233;51.894;10.192;2024-01-11T10:21:38;24.50;;;19.27;;
40533;SDS011;26233;51.894;10.192;2024-01-11T10:24:07;24.33;;;19.07;;
40533;SDS011;26233;51.894;10.192;2024-01-11T10:26:34;23.23;;;19.10;;
40533;SDS011;26233;51.894;10.192;2024-01-11T10:29:02;24.83;;;18.73;;
40533;SDS011;26233;51.894;10.192;2024-01-11T10:31:35;22.63;;;19.27;;
40533;SDS011;26233;51.894;10.192;2024-01-11T10:34:03;22.87;;;18.60;;
40533;SDS011;26233;51.894;10.192;2024-01-11T10:36:31;25.33;;;18.73;;
40533;SDS011;26233;51.894;10.192;2024-01-11T10:38:59;25.73;;;19.37;;
40533;SDS011;26233;51.894;10.192;2024-01-11T10:41:33;23.93;;;19.17;;
40533;SDS011;26233;51.894;10.192;2024-01-11T10:44:06;22.37;;;18.37;;
40533;SDS011;26233;51.894;10.192;2024-01-11T10:46:41;23.23;;;18.77;;
40533;SDS011;26233;51.894;10.192;2024-01-11T10:49:11;22.97;;;17.93;;
40533;SDS011;26233;51.894;10.192;2024-01-11T10:51:43;21.33;;;16.97;;
40533;SDS011;26233;51.894;10.192;2024-01-11T10:54:16;19.73;;;15.23;;
40533;SDS011;26233;51.894;10.192;2024-01-11T10:56:46;19.57;;;15.33;;
40533;SDS011;26233;51.894;10.192;2024-01-11T10:59:14;18.53;;;15.40;;
40533;SDS011;26233;51.894;10.192;2024-01-11T11:01:44;18.77;;;15.30;;
40533;SDS011;26233;51.894;10.192;2024-01-11T11:04:13;20.47;;;16.33;;
40533;SDS011;26233;51.894;10.192;2024-01-11T11:06:41;20.53;;;16.60;;
40533;SDS011;26233;51.894;10.192;2024-01-11T11:09:10;19.50;;;15.75;;
40533;SDS011;26233;51.894;10.192;2024-01-11T11:11:38;19.60;;;16.10;;
40533;SDS011;26233;51.894;10.192;2024-01-11T11:14:07;20.67;;;16.03;;
40533;SDS011;26233;51.894;10.192;2024-01-11T11:16:35;19.97;;;15.87;;
40533;SDS011;26233;51.894;10.192;2024-01-11T11:19:02;21.03;;;16.87;;
40533;SDS011;26233;51.894;10.192;2024-01-11T11:21:29;21.50;;;17.33;;
40533;SDS011;26233;51.894;10.192;2024-01-11T11:23:56;18.60;;;16.30;;
40533;SDS011;26233;51.894;10.192;2024-01-11T11:26:23;20.57;;;17.70;;
40533;SDS011;26233;51.894;10.192;2024-01-11T11:28:53;18.83;;;15.57;;
40533;SDS011;26233;51.894;10.192;2024-01-11T11:31:35;19.47;;;15.63;;
40533;SDS011;26233;51.894;10.192;2024-01-11T11:34:03;19.07;;;16.07;;
40533;SDS011;26233;51.894;10.192;2024-01-11T11:36:32;19.27;;;16.10;;
40533;SDS011;26233;51.894;10.192;2024-01-11T11:39:01;19.43;;;15.23;;
40533;SDS011;26233;51.894;10.192;2024-01-11T11:41:30;20.07;;;16.13;;
40533;SDS011;26233;51.894;10.192;2024-01-11T11:44:00;19.17;;;16.03;;
40533;SDS011;26233;51.894;10.192;2024-01-11T11:46:28;19.07;;;16.00;;
40533;SDS011;26233;51.894;10.192;2024-01-11T11:48:57;17.70;;;15.40;;
40533;SDS011;26233;51.894;10.192;2024-01-11T11:51:25;17.70;;;14.13;;
40533;SDS011;26233;51.894;10.192;2024-01-11T11:53:53;19.57;;;14.87;;
40533;SDS011;26233;51.894;10.192;2024-01-11T11:56:20;18.37;;;14.63;;
40533;SDS011;26233;51.894;10.192;2024-01-11T11:58:48;17.53;;;13.87;;
40533;SDS011;26233;51.894;10.192;2024-01-11T12:01:17;16.67;;;13.47;;
40533;SDS011;26233;51.894;10.192;2024-01-11T12:03:45;17.03;;;14.33;;
40533;SDS011;26233;51.894;10.192;2024-01-11T12:06:16;16.43;;;14.33;;
40533;SDS011;26233;51.894;10.192;2024-01-11T12:08:46;15.40;;;12.80;;
40533;SDS011;26233;51.894;10.192;2024-01-11T12:11:14;15.47;;;13.20;;
40533;SDS011;26233;51.894;10.192;2024-01-11T12:13:43;15.73;;;12.63;;
40533;SDS011;26233;51.894;10.192;2024-01-11T12:16:11;15.87;;;13.43;;
40533;SDS011;26233;51.894;10.192;2024-01-11T12:18:38;16.03;;;13.10;;
40533;SDS011;26233;51.894;10.192;2024-01-11T12:21:06;14.63;;;11.77;;
40533;SDS011;26233;51.894;10.192;2024-01-11T12:23:35;14.90;;;12.20;;
40533;SDS011;26233;51.894;10.192;2024-01-11T12:26:05;16.33;;;12.20;;
40533;SDS011;26233;51.894;10.192;2024-01-11T12:28:37;15.83;;;12.80;;
40533;SDS011;26233;51.894;10.192;2024-01-11T12:31:05;14.87;;;12.43;;
40533;SDS011;26233;51.894;10.192;2024-01-11T12:33:32;14.90;;;12.30;;
40533;SDS011;26233;51.894;10.192;2024-01-11T12:36:03;17.70;;;13.53;;
40533;SDS011;26233;51.894;10.192;2024-01-11T12:38:34;15.63;;;12.80;;
40533;SDS011;26233;51.894;10.192;2024-01-11T12:41:01;24.90;;;17.20;;
40533;SDS011;26233;51.894;10.192;2024-01-11T12:43:29;21.03;;;15.00;;
40533;SDS011;26233;51.894;10.192;2024-01-11T12:45:56;15.20;;;11.27;;
40533;SDS011;26233;51.894;10.192;2024-01-11T12:48:23;12.87;;;8.97;;
40533;SDS011;26233;51.894;10.192;2024-01-11T12:50:51;11.97;;;8.73;;
40533;SDS011;26233;51.894;10.192;2024-01-11T12:53:19;12.00;;;9.33;;
40533;SDS011;26233;51.894;10.192;2024-01-11T12:55:48;12.03;;;9.57;;
40533;SDS011;26233;51.894;10.192;2024-01-11T12:58:33;11.83;;;9.50;;
40533;SDS011;26233;51.894;10.192;2024-01-11T13:01:00;12.33;;;9.50;;
40533;SDS011;26233;51.894;10.192;2024-01-11T13:03:27;10.17;;;8.17;;
40533;SDS011;26233;51.894;10.192;2024-01-11T13:05:55;8.93;;;8.00;;
40533;SDS011;26233;51.894;10.192;2024-01-11T13:08:25;8.33;;;7.00;;
40533;SDS011;26233;51.894;10.192;2024-01-11T13:10:55;6.30;;;5.47;;
40533;SDS011;26233;51.894;10.192;2024-01-11T13:13:22;5.80;;;4.97;;
40533;SDS011;26233;51.894;10.192;2024-01-11T13:15:49;6.03;;;4.50;;
40533;SDS011;26233;51.894;10.192;2024-01-11T13:18:17;4.83;;;3.87;;
40533;SDS011;26233;51.894;10.192;2024-01-11T13:20:44;3.83;;;3.43;;
40533;SDS011;26233;51.894;10.192;2024-01-11T13:23:12;4.67;;;3.60;;
40533;SDS011;26233;51.894;10.192;2024-01-11T13:25:40;4.40;;;3.70;;
40533;SDS011;26233;51.894;10.192;2024-01-11T13:28:09;4.97;;;3.70;;
40533;SDS011;26233;51.894;10.192;2024-01-11T13:30:37;3.93;;;3.17;;
40533;SDS011;26233;51.894;10.192;2024-01-11T13:33:05;3.20;;;2.90;;
40533;SDS011;26233;51.894;10.192;2024-01-11T13:35:33;3.43;;;2.70;;
40533;SDS011;26233;51.894;10.192;2024-01-11T13:38:00;3.00;;;2.70;;
40533;SDS011;26233;51.894;10.192;2024-01-11T13:40:27;3.07;;;2.60;;
40533;SDS011;26233;51.894;10.192;2024-01-11T13:42:55;2.70;;;2.20;;
40533;SDS011;26233;51.894;10.192;2024-01-11T13:45:23;2.80;;;2.43;;
40533;SDS011;26233;51.894;10.192;2024-01-11T13:47:51;2.90;;;2.40;;
40533;SDS011;26233;51.894;10.192;2024-01-11T13:50:19;3.73;;;2.90;;
40533;SDS011;26233;51.894;10.192;2024-01-11T13:52:46;3.40;;;2.77;;
40533;SDS011;26233;51.894;10.192;2024-01-11T13:55:13;3.03;;;2.63;;
40533;SDS011;26233;51.894;10.192;2024-01-11T13:57:40;2.47;;;2.20;;
40533;SDS011;26233;51.894;10.192;2024-01-11T14:00:08;3.13;;;2.47;;
40533;SDS011;26233;51.894;10.192;2024-01-11T14:02:38;3.13;;;2.77;;
40533;SDS011;26233;51.894;10.192;2024-01-11T14:05:06;3.10;;;2.80;;
40533;SDS011;26233;51.894;10.192;2024-01-11T14:07:36;3.50;;;3.20;;
40533;SDS011;26233;51.894;10.192;2024-01-11T14:10:04;3.10;;;2.77;;
40533;SDS011;26233;51.894;10.192;2024-01-11T14:12:33;3.40;;;2.83;;
40533;SDS011;26233;51.894;10.192;2024-01-11T14:15:01;3.20;;;2.40;;
40533;SDS011;26233;51.894;10.192;2024-01-11T14:17:29;2.70;;;2.50;;